sensor_id;sensor_type;location;lat;lon;timestamp;P1;durP1;ratioP1;P2;durP2;ratioP2
41343;SDS011;27089;50.022;7.604;2024-02-21T00:01:31;13.33;;;6.17;;
41343;SDS011;27089;50.022;7.604;2024-02-21T00:03:58;14.07;;;6.07;;
41343;SDS011;27089;50.022;7.604;2024-02-21T00:06:25;15.70;;;6.13;;
41343;SDS011;27089;50.022;7.604;2024-02-21T00:08:52;12.67;;;5.90;;
41343;SDS011;27089;50.022;7.604;2024-02-21T00:11:20;13.37;;;6.10;;
41343;SDS011;27089;50.022;7.604;2024-02-21T00:13:47;18.23;;;6.63;;
41343;SDS011;27089;50.022;7.604;2024-02-21T00:16:15;14.57;;;5.97;;
41343;SDS011;27089;50.022;7.604;2024-02-21T00:18:42;13.57;;;6.00;;
41343;SDS011;27089;50.022;7.604;2024-02-21T00:21:09;12.67;;;5.60;;
41343;SDS011;27089;50.022;7.604;2024-02-21T00:23:40;14.80;;;5.73;;
41343;SDS011;27089;50.022;7.604;2024-02-21T00:26:07;12.47;;;5.50;;
41343;SDS011;27089;50.022;7.604;2024-02-21T00:28:35;11.57;;;5.90;;
41343;SDS011;27089;50.022;7.604;2024-02-21T00:31:02;16.43;;;5.97;;
41343;SDS011;27089;50.022;7.604;2024-02-21T00:33:28;10.97;;;5.77;;
41343;SDS011;27089;50.022;7.604;2024-02-21T00:35:55;11.57;;;6.00;;
41343;SDS011;27089;50.022;7.604;2024-02-21T00:38:22;13.17;;;6.07;;
41343;SDS011;27089;50.022;7.604;2024-02-21T00:40:49;13.90;;;5.80;;
41343;SDS011;27089;50.022;7.604;2024-02-21T00:43:16;15.20;;;6.57;;
41343;SDS011;27089;50.022;7.604;2024-02-21T00:45:44;16.83;;;6.27;;
41343;SDS011;27089;50.022;7.604;2024-02-21T00:48:11;14.57;;;5.70;;
41343;SDS011;27089;50.022;7.604;2024-02-21T00:50:38;14.03;;;5.70;;
41343;SDS011;27089;50.022;7.604;2024-02-21T00:53:05;17.47;;;5.90;;
41343;SDS011;27089;50.022;7.604;2024-02-21T00:55:32;15.10;;;6.07;;
41343;SDS011;27089;50.022;7.604;2024-02-21T00:57:59;13.63;;;6.43;;
41343;SDS011;27089;50.022;7.604;2024-02-21T01:00:26;14.00;;;5.97;;
41343;SDS011;27089;50.022;7.604;2024-02-21T01:02:54;17.47;;;6.17;;
41343;SDS011;27089;50.022;7.604;2024-02-21T01:05:21;15.23;;;6.27;;
41343;SDS011;27089;50.022;7.604;2024-02-21T01:07:48;11.63;;;5.30;;
41343;SDS011;27089;50.022;7.604;2024-02-21T01:10:15;15.43;;;5.70;;
41343;SDS011;27089;50.022;7.604;2024-02-21T01:12:43;13.00;;;5.63;;
41343;SDS011;27089;50.022;7.604;2024-02-21T01:15:10;14.00;;;5.83;;
41343;SDS011;27089;50.022;7.604;2024-02-21T01:17:37;15.63;;;6.57;;
41343;SDS011;27089;50.022;7.604;2024-02-21T01:20:07;16.33;;;6.23;;
41343;SDS011;27089;50.022;7.604;2024-02-21T01:22:34;16.03;;;6.13;;
41343;SDS011;27089;50.022;7.604;2024-02-21T01:25:02;12.33;;;5.57;;
41343;SDS011;27089;50.022;7.604;2024-02-21T01:27:29;13.17;;;5.73;;
41343;SDS011;27089;50.022;7.604;2024-02-21T01:29:56;12.67;;;5.80;;
41343;SDS011;27089;50.022;7.604;2024-02-21T01:32:23;15.03;;;5.70;;
41343;SDS011;27089;50.022;7.604;2024-02-21T01:34:50;13.67;;;5.83;;
41343;SDS011;27089;50.022;7.604;2024-02-21T01:37:18;11.60;;;5.80;;
41343;SDS011;27089;50.022;7.604;2024-02-21T01:39:45;17.10;;;5.83;;
41343;SDS011;27089;50.022;7.604;2024-02-21T01:42:14;12.80;;;5.67;;
41343;SDS011;27089;50.022;7.604;2024-02-21T01:44:41;16.27;;;5.83;;
41343;SDS011;27089;50.022;7.604;2024-02-21T01:47:08;11.57;;;5.90;;
41343;SDS011;27089;50.022;7.604;2024-02-21T01:49:36;9.73;;;5.13;;
41343;SDS011;27089;50.022;7.604;2024-02-21T01:52:03;10.43;;;4.80;;
41343;SDS011;27089;50.022;7.604;2024-02-21T01:54:32;13.57;;;5.43;;
41343;SDS011;27089;50.022;7.604;2024-02-21T01:56:59;10.73;;;5.03;;
41343;SDS011;27089;50.022;7.604;2024-02-21T01:59:27;13.80;;;5.47;;
41343;SDS011;27089;50.022;7.604;2024-02-21T02:01:54;13.23;;;5.67;;
41343;SDS011;27089;50.022;7.604;2024-02-21T02:04:22;10.43;;;4.67;;
41343;SDS011;27089;50.022;7.604;2024-02-21T02:06:50;14.60;;;5.40;;
41343;SDS011;27089;50.022;7.604;2024-02-21T02:09:17;14.23;;;5.97;;
41343;SDS011;27089;50.022;7.604;2024-02-21T02:11:46;14.43;;;5.63;;
41343;SDS011;27089;50.022;7.604;2024-02-21T02:14:13;14.03;;;5.27;;
41343;SDS011;27089;50.022;7.604;2024-02-21T02:16:40;10.67;;;5.80;;
41343;SDS011;27089;50.022;7.604;2024-02-21T02:19:07;15.63;;;5.37;;
41343;SDS011;27089;50.022;7.604;2024-02-21T02:21:38;12.53;;;5.73;;
41343;SDS011;27089;50.022;7.604;2024-02-21T02:24:10;11.07;;;5.60;;
41343;SDS011;27089;50.022;7.604;2024-02-21T02:26:39;14.00;;;5.43;;
41343;SDS011;27089;50.022;7.604;2024-02-21T02:29:06;12.13;;;5.30;;
41343;SDS011;27089;50.022;7.604;2024-02-21T02:31:33;14.37;;;5.47;;
41343;SDS011;27089;50.022;7.604;2024-02-21T02:34:00;14.83;;;5.53;;
41343;SDS011;27089;50.022;7.604;2024-02-21T02:36:27;12.07;;;5.43;;
41343;SDS011;27089;50.022;7.604;2024-02-21T02:38:54;12.10;;;4.90;;
41343;SDS011;27089;50.022;7.604;2024-02-21T02:41:22;14.37;;;5.27;;
41343;SDS011;27089;50.022;7.604;2024-02-21T02:43:49;13.60;;;5.10;;
41343;SDS011;27089;50.022;7.604;2024-02-21T02:46:16;10.23;;;4.50;;
41343;SDS011;27089;50.022;7.604;2024-02-21T02:48:43;10.93;;;4.93;;
41343;SDS011;27089;50.022;7.604;2024-02-21T02:51:11;16.33;;;5.33;;
41343;SDS011;27089;50.022;7.604;2024-02-21T02:53:38;10.63;;;4.47;;
41343;SDS011;27089;50.022;7.604;2024-02-21T02:56:05;11.77;;;5.13;;
41343;SDS011;27089;50.022;7.604;2024-02-21T02:58:33;11.27;;;5.00;;
41343;SDS011;27089;50.022;7.604;2024-02-21T03:01:01;8.07;;;4.10;;
41343;SDS011;27089;50.022;7.604;2024-02-21T03:03:29;11.27;;;4.53;;
41343;SDS011;27089;50.022;7.604;2024-02-21T03:05:56;8.73;;;4.40;;
41343;SDS011;27089;50.022;7.604;2024-02-21T03:08:23;10.67;;;4.13;;
41343;SDS011;27089;50.022;7.604;2024-02-21T03:10:50;11.93;;;4.63;;
41343;SDS011;27089;50.022;7.604;2024-02-21T03:13:17;12.87;;;4.40;;
41343;SDS011;27089;50.022;7.604;2024-02-21T03:15:45;9.17;;;4.43;;
41343;SDS011;27089;50.022;7.604;2024-02-21T03:18:12;9.17;;;4.60;;
41343;SDS011;27089;50.022;7.604;2024-02-21T03:20:39;12.70;;;4.60;;
41343;SDS011;27089;50.022;7.604;2024-02-21T03:23:06;11.00;;;4.70;;
41343;SDS011;27089;50.022;7.604;2024-02-21T03:25:33;11.47;;;4.30;;
41343;SDS011;27089;50.022;7.604;2024-02-21T03:28:00;9.13;;;4.20;;
41343;SDS011;27089;50.022;7.604;2024-02-21T03:30:27;9.13;;;4.20;;
41343;SDS011;27089;50.022;7.604;2024-02-21T03:32:55;11.43;;;4.23;;
41343;SDS011;27089;50.022;7.604;2024-02-21T03:35:22;13.73;;;4.13;;
41343;SDS011;27089;50.022;7.604;2024-02-21T03:37:51;11.20;;;4.20;;
41343;SDS011;27089;50.022;7.604;2024-02-21T03:40:18;10.73;;;4.30;;
41343;SDS011;27089;50.022;7.604;2024-02-21T03:42:45;13.23;;;4.80;;
41343;SDS011;27089;50.022;7.604;2024-02-21T03:45:12;8.57;;;3.57;;
41343;SDS011;27089;50.022;7.604;2024-02-21T03:47:39;9.00;;;3.80;;
41343;SDS011;27089;50.022;7.604;2024-02-21T03:50:08;9.83;;;4.20;;
41343;SDS011;27089;50.022;7.604;2024-02-21T03:52:35;8.93;;;3.83;;
41343;SDS011;27089;50.022;7.604;2024-02-21T03:55:02;9.43;;;3.60;;
41343;SDS011;27089;50.022;7.604;2024-02-21T03:57:29;9.03;;;4.27;;
41343;SDS011;27089;50.022;7.604;2024-02-21T03:59:56;9.40;;;4.03;;
41343;SDS011;27089;50.022;7.604;2024-02-21T04:02:23;12.33;;;4.07;;
41343;SDS011;27089;50.022;7.604;2024-02-21T04:04:50;10.90;;;4.30;;
41343;SDS011;27089;50.022;7.604;2024-02-21T04:07:19;10.67;;;4.03;;
41343;SDS011;27089;50.022;7.604;2024-02-21T04:09:45;9.23;;;4.07;;
41343;SDS011;27089;50.022;7.604;2024-02-21T04:12:12;11.73;;;4.17;;
41343;SDS011;27089;50.022;7.604;2024-02-21T04:14:39;10.00;;;4.00;;
41343;SDS011;27089;50.022;7.604;2024-02-21T04:17:06;9.83;;;4.33;;
41343;SDS011;27089;50.022;7.604;2024-02-21T04:19:33;7.70;;;3.83;;
41343;SDS011;27089;50.022;7.604;2024-02-21T04:22:00;8.07;;;3.80;;
41343;SDS011;27089;50.022;7.604;2024-02-21T04:24:28;11.67;;;4.10;;
41343;SDS011;27089;50.022;7.604;2024-02-21T04:26:55;12.53;;;4.00;;
41343;SDS011;27089;50.022;7.604;2024-02-21T04:29:22;7.87;;;4.40;;
41343;SDS011;27089;50.022;7.604;2024-02-21T04:31:49;13.90;;;4.23;;
41343;SDS011;27089;50.022;7.604;2024-02-21T04:34:16;10.60;;;4.03;;
41343;SDS011;27089;50.022;7.604;2024-02-21T04:36:43;11.13;;;4.07;;
41343;SDS011;27089;50.022;7.604;2024-02-21T04:39:11;7.47;;;4.07;;
41343;SDS011;27089;50.022;7.604;2024-02-21T04:41:39;11.03;;;3.77;;
41343;SDS011;27089;50.022;7.604;2024-02-21T04:44:06;10.80;;;3.80;;
41343;SDS011;27089;50.022;7.604;2024-02-21T04:46:34;13.43;;;3.70;;
41343;SDS011;27089;50.022;7.604;2024-02-21T04:49:01;7.27;;;2.97;;
41343;SDS011;27089;50.022;7.604;2024-02-21T04:51:28;10.07;;;3.57;;
41343;SDS011;27089;50.022;7.604;2024-02-21T04:53:55;8.67;;;3.57;;
41343;SDS011;27089;50.022;7.604;2024-02-21T04:56:21;8.40;;;3.93;;
41343;SDS011;27089;50.022;7.604;2024-02-21T04:58:50;8.73;;;3.63;;
41343;SDS011;27089;50.022;7.604;2024-02-21T05:01:17;8.63;;;3.53;;
41343;SDS011;27089;50.022;7.604;2024-02-21T05:03:44;6.83;;;3.73;;
41343;SDS011;27089;50.022;7.604;2024-02-21T05:06:11;10.10;;;3.50;;
41343;SDS011;27089;50.022;7.604;2024-02-21T05:08:38;7.63;;;3.90;;
41343;SDS011;27089;50.022;7.604;2024-02-21T05:11:05;8.73;;;4.30;;
41343;SDS011;27089;50.022;7.604;2024-02-21T05:13:32;8.40;;;3.90;;
41343;SDS011;27089;50.022;7.604;2024-02-21T05:16:00;9.73;;;3.80;;
41343;SDS011;27089;50.022;7.604;2024-02-21T05:18:28;8.00;;;4.00;;
41343;SDS011;27089;50.022;7.604;2024-02-21T05:20:55;13.40;;;4.23;;
41343;SDS011;27089;50.022;7.604;2024-02-21T05:23:22;9.63;;;3.97;;
41343;SDS011;27089;50.022;7.604;2024-02-21T05:25:49;7.30;;;3.87;;
41343;SDS011;27089;50.022;7.604;2024-02-21T05:28:16;10.63;;;4.27;;
41343;SDS011;27089;50.022;7.604;2024-02-21T05:30:43;15.97;;;5.33;;
41343;SDS011;27089;50.022;7.604;2024-02-21T05:33:11;10.03;;;4.70;;
41343;SDS011;27089;50.022;7.604;2024-02-21T05:35:46;10.50;;;7.30;;
41343;SDS011;27089;50.022;7.604;2024-02-21T05:38:13;11.10;;;5.87;;
41343;SDS011;27089;50.022;7.604;2024-02-21T05:40:40;20.43;;;11.70;;
41343;SDS011;27089;50.022;7.604;2024-02-21T05:43:07;14.47;;;7.07;;
41343;SDS011;27089;50.022;7.604;2024-02-21T05:45:34;14.50;;;5.20;;
41343;SDS011;27089;50.022;7.604;2024-02-21T05:48:02;16.07;;;7.07;;
41343;SDS011;27089;50.022;7.604;2024-02-21T05:50:31;17.60;;;8.50;;
41343;SDS011;27089;50.022;7.604;2024-02-21T05:52:58;12.40;;;5.47;;
41343;SDS011;27089;50.022;7.604;2024-02-21T05:55:25;14.57;;;5.83;;
41343;SDS011;27089;50.022;7.604;2024-02-21T05:57:53;16.40;;;4.50;;
41343;SDS011;27089;50.022;7.604;2024-02-21T06:00:21;11.30;;;5.00;;
41343;SDS011;27089;50.022;7.604;2024-02-21T06:02:48;8.50;;;4.80;;
41343;SDS011;27089;50.022;7.604;2024-02-21T06:05:15;10.30;;;4.93;;
41343;SDS011;27089;50.022;7.604;2024-02-21T06:07:43;13.53;;;4.40;;
41343;SDS011;27089;50.022;7.604;2024-02-21T06:10:10;9.73;;;4.33;;
41343;SDS011;27089;50.022;7.604;2024-02-21T06:12:37;10.93;;;4.37;;
41343;SDS011;27089;50.022;7.604;2024-02-21T06:15:05;8.97;;;3.80;;
41343;SDS011;27089;50.022;7.604;2024-02-21T06:17:32;10.50;;;4.87;;
41343;SDS011;27089;50.022;7.604;2024-02-21T06:20:00;13.90;;;4.53;;
41343;SDS011;27089;50.022;7.604;2024-02-21T06:22:27;10.93;;;5.30;;
41343;SDS011;27089;50.022;7.604;2024-02-21T06:24:55;12.30;;;5.43;;
41343;SDS011;27089;50.022;7.604;2024-02-21T06:27:22;10.17;;;4.43;;
41343;SDS011;27089;50.022;7.604;2024-02-21T06:29:49;11.07;;;4.60;;
41343;SDS011;27089;50.022;7.604;2024-02-21T06:32:16;12.50;;;4.90;;
41343;SDS011;27089;50.022;7.604;2024-02-21T06:34:43;11.77;;;5.03;;
41343;SDS011;27089;50.022;7.604;2024-02-21T06:37:10;37.90;;;16.20;;
41343;SDS011;27089;50.022;7.604;2024-02-21T06:39:37;167.73;;;54.47;;
41343;SDS011;27089;50.022;7.604;2024-02-21T06:42:07;106.77;;;33.40;;
41343;SDS011;27089;50.022;7.604;2024-02-21T06:44:34;53.70;;;18.53;;
41343;SDS011;27089;50.022;7.604;2024-02-21T06:47:05;50.43;;;20.47;;
41343;SDS011;27089;50.022;7.604;2024-02-21T06:49:33;44.93;;;18.37;;
41343;SDS011;27089;50.022;7.604;2024-02-21T06:52:02;56.37;;;21.80;;
41343;SDS011;27089;50.022;7.604;2024-02-21T06:54:29;35.97;;;14.67;;
41343;SDS011;27089;50.022;7.604;2024-02-21T06:56:56;26.60;;;11.27;;
41343;SDS011;27089;50.022;7.604;2024-02-21T06:59:25;33.67;;;14.77;;
41343;SDS011;27089;50.022;7.604;2024-02-21T07:01:52;30.50;;;12.20;;
41343;SDS011;27089;50.022;7.604;2024-02-21T07:04:20;67.70;;;27.93;;
41343;SDS011;27089;50.022;7.604;2024-02-21T07:06:47;33.77;;;14.47;;
41343;SDS011;27089;50.022;7.604;2024-02-21T07:09:14;53.23;;;23.73;;
41343;SDS011;27089;50.022;7.604;2024-02-21T07:11:41;42.13;;;18.27;;
41343;SDS011;27089;50.022;7.604;2024-02-21T07:14:08;60.37;;;24.27;;
41343;SDS011;27089;50.022;7.604;2024-02-21T07:16:37;78.07;;;32.10;;
41343;SDS011;27089;50.022;7.604;2024-02-21T07:19:04;119.47;;;46.97;;
41343;SDS011;27089;50.022;7.604;2024-02-21T07:21:31;34.10;;;15.00;;
41343;SDS011;27089;50.022;7.604;2024-02-21T07:23:58;89.53;;;37.97;;
41343;SDS011;27089;50.022;7.604;2024-02-21T07:26:25;36.97;;;17.13;;
41343;SDS011;27089;50.022;7.604;2024-02-21T07:28:52;19.53;;;10.73;;
41343;SDS011;27089;50.022;7.604;2024-02-21T07:31:19;12.70;;;7.67;;
41343;SDS011;27089;50.022;7.604;2024-02-21T07:33:47;11.73;;;5.47;;
41343;SDS011;27089;50.022;7.604;2024-02-21T07:36:14;9.17;;;4.53;;
41343;SDS011;27089;50.022;7.604;2024-02-21T07:38:42;16.33;;;4.40;;
41343;SDS011;27089;50.022;7.604;2024-02-21T07:41:09;9.77;;;4.27;;
41343;SDS011;27089;50.022;7.604;2024-02-21T07:43:36;10.73;;;3.90;;
41343;SDS011;27089;50.022;7.604;2024-02-21T07:46:03;7.13;;;3.70;;
41343;SDS011;27089;50.022;7.604;2024-02-21T07:48:30;10.30;;;4.30;;
41343;SDS011;27089;50.022;7.604;2024-02-21T07:50:58;8.67;;;3.60;;
41343;SDS011;27089;50.022;7.604;2024-02-21T07:53:25;8.00;;;3.80;;
41343;SDS011;27089;50.022;7.604;2024-02-21T07:55:52;10.63;;;4.43;;
41343;SDS011;27089;50.022;7.604;2024-02-21T07:58:19;7.70;;;3.70;;
41343;SDS011;27089;50.022;7.604;2024-02-21T08:00:46;10.73;;;3.73;;
41343;SDS011;27089;50.022;7.604;2024-02-21T08:03:13;9.53;;;4.10;;
41343;SDS011;27089;50.022;7.604;2024-02-21T08:05:42;9.57;;;3.53;;
41343;SDS011;27089;50.022;7.604;2024-02-21T08:08:11;15.60;;;4.67;;
41343;SDS011;27089;50.022;7.604;2024-02-21T08:10:43;14.60;;;4.83;;
41343;SDS011;27089;50.022;7.604;2024-02-21T08:13:10;10.50;;;4.23;;
41343;SDS011;27089;50.022;7.604;2024-02-21T08:15:37;9.73;;;4.50;;
41343;SDS011;27089;50.022;7.604;2024-02-21T08:18:04;11.00;;;4.20;;
41343;SDS011;27089;50.022;7.604;2024-02-21T08:20:31;10.20;;;3.90;;
41343;SDS011;27089;50.022;7.604;2024-02-21T08:22:58;10.70;;;3.97;;
41343;SDS011;27089;50.022;7.604;2024-02-21T08:25:27;9.87;;;3.40;;
41343;SDS011;27089;50.022;7.604;2024-02-21T08:27:59;9.97;;;3.33;;
41343;SDS011;27089;50.022;7.604;2024-02-21T08:30:26;10.03;;;3.27;;
41343;SDS011;27089;50.022;7.604;2024-02-21T08:32:53;8.63;;;3.17;;
41343;SDS011;27089;50.022;7.604;2024-02-21T08:35:20;11.80;;;3.17;;
41343;SDS011;27089;50.022;7.604;2024-02-21T08:37:48;9.07;;;2.90;;
41343;SDS011;27089;50.022;7.604;2024-02-21T08:40:15;9.27;;;2.93;;
41343;SDS011;27089;50.022;7.604;2024-02-21T08:42:47;9.57;;;3.10;;
41343;SDS011;27089;50.022;7.604;2024-02-21T08:45:14;11.33;;;3.60;;
41343;SDS011;27089;50.022;7.604;2024-02-21T08:47:41;7.20;;;2.80;;
41343;SDS011;27089;50.022;7.604;2024-02-21T08:50:09;8.60;;;3.43;;
41343;SDS011;27089;50.022;7.604;2024-02-21T08:52:36;7.57;;;2.93;;
41343;SDS011;27089;50.022;7.604;2024-02-21T08:55:04;5.20;;;2.43;;
41343;SDS011;27089;50.022;7.604;2024-02-21T08:57:32;11.53;;;3.47;;
41343;SDS011;27089;50.022;7.604;2024-02-21T09:00:03;9.77;;;3.27;;
41343;SDS011;27089;50.022;7.604;2024-02-21T09:02:35;7.30;;;2.80;;
41343;SDS011;27089;50.022;7.604;2024-02-21T09:05:04;6.27;;;2.80;;
41343;SDS011;27089;50.022;7.604;2024-02-21T09:07:31;11.50;;;4.17;;
41343;SDS011;27089;50.022;7.604;2024-02-21T09:09:58;9.53;;;3.63;;
41343;SDS011;27089;50.022;7.604;2024-02-21T09:12:25;8.47;;;4.10;;
41343;SDS011;27089;50.022;7.604;2024-02-21T09:14:52;7.90;;;3.03;;
41343;SDS011;27089;50.022;7.604;2024-02-21T09:17:21;8.97;;;3.43;;
41343;SDS011;27089;50.022;7.604;2024-02-21T09:19:50;10.77;;;3.80;;
41343;SDS011;27089;50.022;7.604;2024-02-21T09:22:17;11.57;;;4.67;;
41343;SDS011;27089;50.022;7.604;2024-02-21T09:24:43;9.10;;;3.77;;
41343;SDS011;27089;50.022;7.604;2024-02-21T09:27:10;11.73;;;3.47;;
41343;SDS011;27089;50.022;7.604;2024-02-21T09:29:37;10.30;;;3.60;;
41343;SDS011;27089;50.022;7.604;2024-02-21T09:32:05;14.23;;;3.80;;
41343;SDS011;27089;50.022;7.604;2024-02-21T09:34:33;10.33;;;6.00;;
41343;SDS011;27089;50.022;7.604;2024-02-21T09:37:00;10.13;;;4.40;;
41343;SDS011;27089;50.022;7.604;2024-02-21T09:39:27;11.53;;;5.07;;
41343;SDS011;27089;50.022;7.604;2024-02-21T09:41:58;10.67;;;5.27;;
41343;SDS011;27089;50.022;7.604;2024-02-21T09:44:29;8.50;;;2.97;;
41343;SDS011;27089;50.022;7.604;2024-02-21T09:47:02;7.83;;;3.43;;
41343;SDS011;27089;50.022;7.604;2024-02-21T09:49:34;9.93;;;2.97;;
41343;SDS011;27089;50.022;7.604;2024-02-21T09:52:03;7.30;;;3.13;;
41343;SDS011;27089;50.022;7.604;2024-02-21T09:54:32;10.73;;;3.27;;
41343;SDS011;27089;50.022;7.604;2024-02-21T09:57:00;10.43;;;2.90;;
41343;SDS011;27089;50.022;7.604;2024-02-21T09:59:27;7.57;;;3.23;;
41343;SDS011;27089;50.022;7.604;2024-02-21T10:01:55;7.43;;;3.53;;
41343;SDS011;27089;50.022;7.604;2024-02-21T10:04:24;7.43;;;3.10;;
41343;SDS011;27089;50.022;7.604;2024-02-21T10:06:52;6.60;;;2.60;;
41343;SDS011;27089;50.022;7.604;2024-02-21T10:09:20;8.63;;;3.60;;
41343;SDS011;27089;50.022;7.604;2024-02-21T10:11:48;7.67;;;3.30;;
41343;SDS011;27089;50.022;7.604;2024-02-21T10:14:16;8.17;;;3.20;;
41343;SDS011;27089;50.022;7.604;2024-02-21T10:16:43;17.10;;;6.97;;
41343;SDS011;27089;50.022;7.604;2024-02-21T10:19:17;11.10;;;4.10;;
41343;SDS011;27089;50.022;7.604;2024-02-21T10:21:58;7.13;;;2.70;;
41343;SDS011;27089;50.022;7.604;2024-02-21T10:24:28;10.03;;;3.17;;
41343;SDS011;27089;50.022;7.604;2024-02-21T10:27:00;7.80;;;2.80;;
41343;SDS011;27089;50.022;7.604;2024-02-21T10:29:33;8.67;;;3.80;;
41343;SDS011;27089;50.022;7.604;2024-02-21T10:32:03;10.57;;;3.63;;
41343;SDS011;27089;50.022;7.604;2024-02-21T10:34:32;7.53;;;4.17;;
41343;SDS011;27089;50.022;7.604;2024-02-21T10:37:01;8.30;;;3.03;;
41343;SDS011;27089;50.022;7.604;2024-02-21T10:39:29;9.07;;;3.60;;
41343;SDS011;27089;50.022;7.604;2024-02-21T10:41:57;10.07;;;3.00;;
41343;SDS011;27089;50.022;7.604;2024-02-21T10:44:28;9.97;;;2.90;;
41343;SDS011;27089;50.022;7.604;2024-02-21T10:46:56;8.83;;;2.87;;
41343;SDS011;27089;50.022;7.604;2024-02-21T10:49:24;5.60;;;2.10;;
41343;SDS011;27089;50.022;7.604;2024-02-21T10:51:54;9.07;;;2.60;;
41343;SDS011;27089;50.022;7.604;2024-02-21T10:54:34;7.37;;;2.80;;
41343;SDS011;27089;50.022;7.604;2024-02-21T10:57:11;8.70;;;2.43;;
41343;SDS011;27089;50.022;7.604;2024-02-21T10:59:39;7.53;;;2.37;;
41343;SDS011;27089;50.022;7.604;2024-02-21T11:02:07;5.80;;;2.13;;
41343;SDS011;27089;50.022;7.604;2024-02-21T11:04:34;7.90;;;2.40;;
41343;SDS011;27089;50.022;7.604;2024-02-21T11:07:02;6.60;;;2.20;;
41343;SDS011;27089;50.022;7.604;2024-02-21T11:09:32;5.60;;;1.90;;
41343;SDS011;27089;50.022;7.604;2024-02-21T11:12:01;4.90;;;2.10;;
41343;SDS011;27089;50.022;7.604;2024-02-21T11:14:30;8.23;;;2.67;;
41343;SDS011;27089;50.022;7.604;2024-02-21T11:17:01;6.13;;;2.27;;
41343;SDS011;27089;50.022;7.604;2024-02-21T11:19:28;5.03;;;2.20;;
41343;SDS011;27089;50.022;7.604;2024-02-21T11:21:56;3.93;;;1.70;;
41343;SDS011;27089;50.022;7.604;2024-02-21T11:24:26;7.60;;;2.30;;
41343;SDS011;27089;50.022;7.604;2024-02-21T11:26:56;9.33;;;2.20;;
41343;SDS011;27089;50.022;7.604;2024-02-21T11:29:23;6.03;;;2.07;;
41343;SDS011;27089;50.022;7.604;2024-02-21T11:31:51;7.27;;;2.30;;
41343;SDS011;27089;50.022;7.604;2024-02-21T11:34:18;7.50;;;2.47;;
41343;SDS011;27089;50.022;7.604;2024-02-21T11:36:46;5.03;;;2.10;;
41343;SDS011;27089;50.022;7.604;2024-02-21T11:39:18;8.63;;;2.77;;
41343;SDS011;27089;50.022;7.604;2024-02-21T11:44:33;8.67;;;2.40;;
41343;SDS011;27089;50.022;7.604;2024-02-21T11:47:03;7.67;;;2.60;;
41343;SDS011;27089;50.022;7.604;2024-02-21T11:49:30;5.23;;;2.10;;
41343;SDS011;27089;50.022;7.604;2024-02-21T11:51:58;7.33;;;2.67;;
41343;SDS011;27089;50.022;7.604;2024-02-21T11:54:26;7.10;;;2.23;;
41343;SDS011;27089;50.022;7.604;2024-02-21T11:56:53;6.33;;;2.07;;
41343;SDS011;27089;50.022;7.604;2024-02-21T11:59:21;8.10;;;2.37;;
41343;SDS011;27089;50.022;7.604;2024-02-21T12:01:48;5.73;;;2.20;;
41343;SDS011;27089;50.022;7.604;2024-02-21T12:04:17;4.93;;;2.30;;
41343;SDS011;27089;50.022;7.604;2024-02-21T12:06:45;5.27;;;2.30;;
41343;SDS011;27089;50.022;7.604;2024-02-21T12:09:13;13.73;;;6.30;;
41343;SDS011;27089;50.022;7.604;2024-02-21T12:11:41;8.10;;;2.70;;
41343;SDS011;27089;50.022;7.604;2024-02-21T12:14:08;6.57;;;2.50;;
41343;SDS011;27089;50.022;7.604;2024-02-21T12:16:36;8.43;;;2.60;;
41343;SDS011;27089;50.022;7.604;2024-02-21T12:19:03;7.13;;;3.27;;
41343;SDS011;27089;50.022;7.604;2024-02-21T12:21:31;6.47;;;2.90;;
41343;SDS011;27089;50.022;7.604;2024-02-21T12:24:10;8.93;;;3.83;;
41343;SDS011;27089;50.022;7.604;2024-02-21T12:26:39;9.93;;;3.80;;
41343;SDS011;27089;50.022;7.604;2024-02-21T12:29:06;13.93;;;6.33;;
41343;SDS011;27089;50.022;7.604;2024-02-21T12:31:34;8.03;;;2.97;;
41343;SDS011;27089;50.022;7.604;2024-02-21T12:34:03;12.67;;;7.03;;
41343;SDS011;27089;50.022;7.604;2024-02-21T12:36:30;12.47;;;4.30;;
41343;SDS011;27089;50.022;7.604;2024-02-21T12:38:57;7.43;;;3.33;;
41343;SDS011;27089;50.022;7.604;2024-02-21T12:41:25;7.87;;;3.40;;
41343;SDS011;27089;50.022;7.604;2024-02-21T12:43:52;6.07;;;3.33;;
41343;SDS011;27089;50.022;7.604;2024-02-21T12:46:19;8.87;;;3.37;;
41343;SDS011;27089;50.022;7.604;2024-02-21T12:48:48;8.73;;;5.30;;
41343;SDS011;27089;50.022;7.604;2024-02-21T12:51:15;7.87;;;3.60;;
41343;SDS011;27089;50.022;7.604;2024-02-21T12:53:46;6.77;;;4.07;;
41343;SDS011;27089;50.022;7.604;2024-02-21T12:56:14;5.73;;;3.40;;
41343;SDS011;27089;50.022;7.604;2024-02-21T12:58:41;8.27;;;3.47;;
41343;SDS011;27089;50.022;7.604;2024-02-21T13:01:09;7.07;;;3.70;;
41343;SDS011;27089;50.022;7.604;2024-02-21T13:03:37;6.40;;;3.70;;
41343;SDS011;27089;50.022;7.604;2024-02-21T13:06:05;10.63;;;4.30;;
41343;SDS011;27089;50.022;7.604;2024-02-21T13:08:35;7.17;;;4.27;;
41343;SDS011;27089;50.022;7.604;2024-02-21T13:11:02;7.30;;;3.87;;
41343;SDS011;27089;50.022;7.604;2024-02-21T13:13:30;6.63;;;4.10;;
41343;SDS011;27089;50.022;7.604;2024-02-21T13:15:57;9.47;;;5.20;;
41343;SDS011;27089;50.022;7.604;2024-02-21T13:18:24;9.07;;;4.77;;
41343;SDS011;27089;50.022;7.604;2024-02-21T13:20:51;11.07;;;4.30;;
41343;SDS011;27089;50.022;7.604;2024-02-21T13:23:20;10.30;;;5.13;;
41343;SDS011;27089;50.022;7.604;2024-02-21T13:25:47;8.90;;;5.57;;
41343;SDS011;27089;50.022;7.604;2024-02-21T13:28:14;9.83;;;5.00;;
41343;SDS011;27089;50.022;7.604;2024-02-21T13:30:41;6.50;;;4.33;;
41343;SDS011;27089;50.022;7.604;2024-02-21T13:33:08;7.00;;;4.50;;
41343;SDS011;27089;50.022;7.604;2024-02-21T13:35:36;6.57;;;4.93;;
41343;SDS011;27089;50.022;7.604;2024-02-21T13:38:03;5.73;;;4.17;;
41343;SDS011;27089;50.022;7.604;2024-02-21T13:40:32;8.87;;;4.67;;
41343;SDS011;27089;50.022;7.604;2024-02-21T13:42:59;9.20;;;4.23;;
41343;SDS011;27089;50.022;7.604;2024-02-21T13:45:26;8.43;;;4.63;;
41343;SDS011;27089;50.022;7.604;2024-02-21T13:47:53;5.87;;;4.47;;
41343;SDS011;27089;50.022;7.604;2024-02-21T13:50:23;5.53;;;4.10;;
41343;SDS011;27089;50.022;7.604;2024-02-21T13:52:55;10.57;;;4.50;;
41343;SDS011;27089;50.022;7.604;2024-02-21T13:55:22;7.50;;;4.20;;
41343;SDS011;27089;50.022;7.604;2024-02-21T13:57:52;9.13;;;4.67;;
41343;SDS011;27089;50.022;7.604;2024-02-21T14:00:20;8.13;;;3.90;;
41343;SDS011;27089;50.022;7.604;2024-02-21T14:02:47;6.97;;;4.30;;
41343;SDS011;27089;50.022;7.604;2024-02-21T14:05:14;8.77;;;4.03;;
41343;SDS011;27089;50.022;7.604;2024-02-21T14:07:41;5.50;;;3.60;;
41343;SDS011;27089;50.022;7.604;2024-02-21T14:10:08;6.43;;;3.20;;
41343;SDS011;27089;50.022;7.604;2024-02-21T14:12:35;5.93;;;3.50;;
41343;SDS011;27089;50.022;7.604;2024-02-21T14:15:04;9.27;;;3.70;;
41343;SDS011;27089;50.022;7.604;2024-02-21T14:17:32;16.63;;;10.90;;
41343;SDS011;27089;50.022;7.604;2024-02-21T14:19:59;22.13;;;12.47;;
41343;SDS011;27089;50.022;7.604;2024-02-21T14:22:26;10.60;;;5.23;;
41343;SDS011;27089;50.022;7.604;2024-02-21T14:24:54;10.43;;;6.73;;
41343;SDS011;27089;50.022;7.604;2024-02-21T14:27:21;8.23;;;3.33;;
41343;SDS011;27089;50.022;7.604;2024-02-21T14:29:48;6.30;;;3.10;;
41343;SDS011;27089;50.022;7.604;2024-02-21T14:32:17;8.63;;;3.20;;
41343;SDS011;27089;50.022;7.604;2024-02-21T14:34:45;6.47;;;3.30;;
41343;SDS011;27089;50.022;7.604;2024-02-21T14:37:12;6.33;;;3.50;;
41343;SDS011;27089;50.022;7.604;2024-02-21T14:39:39;8.30;;;4.03;;
41343;SDS011;27089;50.022;7.604;2024-02-21T14:42:07;6.77;;;2.40;;
41343;SDS011;27089;50.022;7.604;2024-02-21T14:44:34;9.33;;;2.87;;
41343;SDS011;27089;50.022;7.604;2024-02-21T14:47:02;6.30;;;2.33;;